sensor_id;sensor_type;location;lat;lon;timestamp;pressure;altitude;pressure_sealevel;temperature;humidity
79481;BME280;68944;48.262;14.208;2023-04-25T00:01:21;97720.47;;;10.08;61.63
79481;BME280;68944;48.262;14.208;2023-04-25T00:03:49;97720.22;;;9.85;62.30
79481;BME280;68944;48.262;14.208;2023-04-25T00:06:15;97708.16;;;9.77;63.00
79481;BME280;68944;48.262;14.208;2023-04-25T00:08:41;97710.13;;;9.82;63.26
79481;BME280;68944;48.262;14.208;2023-04-25T00:11:06;97711.38;;;9.79;63.07
79481;BME280;68944;48.262;14.208;2023-04-25T00:13:32;97714.25;;;9.78;63.47
79481;BME280;68944;48.262;14.208;2023-04-25T00:15:57;97711.63;;;9.78;63.20
79481;BME280;68944;48.262;14.208;2023-04-25T00:18:23;97712.41;;;9.66;63.03
79481;BME280;68944;48.262;14.208;2023-04-25T00:20:49;97711.03;;;9.64;63.42
79481;BME280;68944;48.262;14.208;2023-04-25T00:23:18;97712.50;;;9.72;63.97
79481;BME280;68944;48.262;14.208;2023-04-25T00:25:44;97715.72;;;9.74;63.58
79481;BME280;68944;48.262;14.208;2023-04-25T00:28:11;97708.97;;;9.78;63.24
79481;BME280;68944;48.262;14.208;2023-04-25T00:30:37;97709.28;;;9.70;62.77
79481;BME280;68944;48.262;14.208;2023-04-25T00:33:03;97708.16;;;9.65;62.82
79481;BME280;68944;48.262;14.208;2023-04-25T00:35:28;97710.22;;;9.63;62.79
79481;BME280;68944;48.262;14.208;2023-04-25T00:37:54;97710.44;;;9.50;62.76
79481;BME280;68944;48.262;14.208;2023-04-25T00:40:20;97694.78;;;9.36;63.82
79481;BME280;68944;48.262;14.208;2023-04-25T00:42:46;97698.03;;;9.50;64.24
79481;BME280;68944;48.262;14.208;2023-04-25T00:45:13;97705.38;;;9.60;63.27
79481;BME280;68944;48.262;14.208;2023-04-25T00:47:41;97699.84;;;9.50;63.12
79481;BME280;68944;48.262;14.208;2023-04-25T00:50:08;97702.91;;;9.35;63.42
79481;BME280;68944;48.262;14.208;2023-04-25T00:52:33;97690.72;;;9.21;64.04
79481;BME280;68944;48.262;14.208;2023-04-25T00:55:00;97704.28;;;9.25;64.37
79481;BME280;68944;48.262;14.208;2023-04-25T00:57:26;97688.88;;;9.22;64.11
79481;BME280;68944;48.262;14.208;2023-04-25T00:59:52;97696.38;;;9.37;64.40
79481;BME280;68944;48.262;14.208;2023-04-25T01:02:19;97695.38;;;9.50;64.94
79481;BME280;68944;48.262;14.208;2023-04-25T01:04:46;97683.06;;;9.56;64.08
79481;BME280;68944;48.262;14.208;2023-04-25T01:07:15;97684.47;;;9.71;63.81
79481;BME280;68944;48.262;14.208;2023-04-25T01:09:41;97678.81;;;9.67;63.54
79481;BME280;68944;48.262;14.208;2023-04-25T01:12:07;97688.97;;;9.82;62.99
79481;BME280;68944;48.262;14.208;2023-04-25T01:14:33;97672.16;;;9.76;63.21
79481;BME280;68944;48.262;14.208;2023-04-25T01:16:59;97677.22;;;9.78;62.99
79481;BME280;68944;48.262;14.208;2023-04-25T01:19:27;97692.28;;;9.89;63.05
79481;BME280;68944;48.262;14.208;2023-04-25T01:21:53;97673.31;;;9.81;62.73
79481;BME280;68944;48.262;14.208;2023-04-25T01:24:19;97674.59;;;9.78;62.30
79481;BME280;68944;48.262;14.208;2023-04-25T01:26:45;97685.84;;;9.85;62.11
79481;BME280;68944;48.262;14.208;2023-04-25T01:29:17;97677.31;;;9.83;62.58
79481;BME280;68944;48.262;14.208;2023-04-25T01:31:43;97675.47;;;9.72;62.71
79481;BME280;68944;48.262;14.208;2023-04-25T01:34:09;97670.22;;;9.60;62.64
79481;BME280;68944;48.262;14.208;2023-04-25T01:36:35;97675.13;;;9.56;62.86
79481;BME280;68944;48.262;14.208;2023-04-25T01:39:01;97666.16;;;9.45;63.32
79481;BME280;68944;48.262;14.208;2023-04-25T01:41:28;97672.50;;;9.56;63.46
79481;BME280;68944;48.262;14.208;2023-04-25T01:43:54;97678.47;;;9.63;63.49
79481;BME280;68944;48.262;14.208;2023-04-25T01:46:20;97670.66;;;9.69;63.54
79481;BME280;68944;48.262;14.208;2023-04-25T01:48:46;97662.38;;;9.77;62.57
79481;BME280;68944;48.262;14.208;2023-04-25T01:51:12;97663.75;;;9.79;62.38
79481;BME280;68944;48.262;14.208;2023-04-25T01:53:38;97650.41;;;9.74;62.64
79481;BME280;68944;48.262;14.208;2023-04-25T01:56:04;97659.41;;;9.73;61.90
79481;BME280;68944;48.262;14.208;2023-04-25T01:58:33;97661.91;;;9.68;62.58
79481;BME280;68944;48.262;14.208;2023-04-25T02:01:01;97665.38;;;9.69;62.69
79481;BME280;68944;48.262;14.208;2023-04-25T02:03:34;97657.31;;;9.63;63.01
79481;BME280;68944;48.262;14.208;2023-04-25T02:06:02;97661.69;;;9.70;63.34
79481;BME280;68944;48.262;14.208;2023-04-25T02:08:29;97662.84;;;9.74;63.20
79481;BME280;68944;48.262;14.208;2023-04-25T02:10:57;97650.88;;;9.59;63.05
79481;BME280;68944;48.262;14.208;2023-04-25T02:13:23;97640.44;;;9.52;63.28
79481;BME280;68944;48.262;14.208;2023-04-25T02:15:49;97639.81;;;9.62;63.81
79481;BME280;68944;48.262;14.208;2023-04-25T02:18:17;97645.59;;;9.71;63.13
79481;BME280;68944;48.262;14.208;2023-04-25T02:20:43;97643.28;;;9.75;62.32
79481;BME280;68944;48.262;14.208;2023-04-25T02:23:09;97634.09;;;9.77;63.21
79481;BME280;68944;48.262;14.208;2023-04-25T02:25:35;97622.56;;;9.72;62.95
79481;BME280;68944;48.262;14.208;2023-04-25T02:28:00;97649.16;;;9.77;63.14
79481;BME280;68944;48.262;14.208;2023-04-25T02:30:26;97653.06;;;9.74;63.46
79481;BME280;68944;48.262;14.208;2023-04-25T02:32:51;97653.41;;;9.54;62.23
79481;BME280;68944;48.262;14.208;2023-04-25T02:35:17;97647.53;;;9.40;62.86
79481;BME280;68944;48.262;14.208;2023-04-25T02:37:43;97653.38;;;9.30;63.73
79481;BME280;68944;48.262;14.208;2023-04-25T02:40:09;97646.25;;;9.30;63.34
79481;BME280;68944;48.262;14.208;2023-04-25T02:42:35;97647.63;;;9.33;62.46
79481;BME280;68944;48.262;14.208;2023-04-25T02:45:01;97645.09;;;9.26;62.67
79481;BME280;68944;48.262;14.208;2023-04-25T02:47:26;97637.84;;;9.21;63.26
79481;BME280;68944;48.262;14.208;2023-04-25T02:49:52;97620.94;;;8.98;63.38
79481;BME280;68944;48.262;14.208;2023-04-25T02:52:17;97634.16;;;9.10;63.70
79481;BME280;68944;48.262;14.208;2023-04-25T02:54:50;97622.06;;;9.03;63.27
79481;BME280;68944;48.262;14.208;2023-04-25T02:57:16;97607.94;;;8.97;63.73
79481;BME280;68944;48.262;14.208;2023-04-25T02:59:41;97615.41;;;9.00;63.01
79481;BME280;68944;48.262;14.208;2023-04-25T03:02:07;97620.38;;;9.08;63.53
79481;BME280;68944;48.262;14.208;2023-04-25T03:04:33;97632.91;;;9.13;62.58
79481;BME280;68944;48.262;14.208;2023-04-25T03:06:58;97623.34;;;9.12;63.00
79481;BME280;68944;48.262;14.208;2023-04-25T03:09:24;97616.69;;;9.09;62.90
79481;BME280;68944;48.262;14.208;2023-04-25T03:11:51;97622.34;;;9.13;63.17
79481;BME280;68944;48.262;14.208;2023-04-25T03:14:17;97611.88;;;9.06;62.88
79481;BME280;68944;48.262;14.208;2023-04-25T03:16:43;97628.06;;;9.10;63.06
79481;BME280;68944;48.262;14.208;2023-04-25T03:19:08;97621.63;;;9.06;62.51
79481;BME280;68944;48.262;14.208;2023-04-25T03:21:35;97616.78;;;9.03;63.28
79481;BME280;68944;48.262;14.208;2023-04-25T03:24:02;97612.75;;;9.00;62.96
79481;BME280;68944;48.262;14.208;2023-04-25T03:26:29;97589.88;;;8.82;62.75
79481;BME280;68944;48.262;14.208;2023-04-25T03:28:54;97609.41;;;8.93;63.00
79481;BME280;68944;48.262;14.208;2023-04-25T03:31:20;97604.59;;;8.90;62.99
79481;BME280;68944;48.262;14.208;2023-04-25T03:33:46;97603.44;;;8.85;63.25
79481;BME280;68944;48.262;14.208;2023-04-25T03:36:11;97597.78;;;8.82;63.45
79481;BME280;68944;48.262;14.208;2023-04-25T03:38:37;97606.66;;;8.87;63.09
79481;BME280;68944;48.262;14.208;2023-04-25T03:41:04;97608.13;;;8.83;62.82
79481;BME280;68944;48.262;14.208;2023-04-25T03:43:52;97612.25;;;8.79;62.76
79481;BME280;68944;48.262;14.208;2023-04-25T03:46:18;97601.78;;;8.72;62.82
79481;BME280;68944;48.262;14.208;2023-04-25T03:48:44;97606.94;;;8.67;63.05
79481;BME280;68944;48.262;14.208;2023-04-25T03:51:16;97605.66;;;8.58;63.37
79481;BME280;68944;48.262;14.208;2023-04-25T03:53:44;97597.28;;;8.42;63.45
79481;BME280;68944;48.262;14.208;2023-04-25T03:56:18;97600.50;;;8.44;63.16
79481;BME280;68944;48.262;14.208;2023-04-25T03:58:46;97609.03;;;8.46;63.40
79481;BME280;68944;48.262;14.208;2023-04-25T04:01:13;97611.72;;;8.39;63.46
79481;BME280;68944;48.262;14.208;2023-04-25T04:03:39;97601.34;;;8.26;63.57
79481;BME280;68944;48.262;14.208;2023-04-25T04:06:05;97616.41;;;8.25;63.67
79481;BME280;68944;48.262;14.208;2023-04-25T04:08:34;97615.06;;;8.16;63.46
79481;BME280;68944;48.262;14.208;2023-04-25T04:11:00;97591.19;;;8.11;64.79
79481;BME280;68944;48.262;14.208;2023-04-25T04:13:27;97603.53;;;8.29;64.64
79481;BME280;68944;48.262;14.208;2023-04-25T04:15:52;97610.94;;;8.39;64.45
79481;BME280;68944;48.262;14.208;2023-04-25T04:18:18;97595.09;;;8.39;64.36
79481;BME280;68944;48.262;14.208;2023-04-25T04:20:44;97609.72;;;8.53;64.48
79481;BME280;68944;48.262;14.208;2023-04-25T04:23:11;97613.94;;;8.61;64.21
79481;BME280;68944;48.262;14.208;2023-04-25T04:25:37;97605.78;;;8.63;64.32
79481;BME280;68944;48.262;14.208;2023-04-25T04:28:06;97602.13;;;8.64;63.94
79481;BME280;68944;48.262;14.208;2023-04-25T04:30:42;97621.66;;;8.75;64.25
79481;BME280;68944;48.262;14.208;2023-04-25T04:33:08;97561.81;;;8.38;63.68
79481;BME280;68944;48.262;14.208;2023-04-25T04:35:35;97598.13;;;8.73;64.00
79481;BME280;68944;48.262;14.208;2023-04-25T04:38:00;97604.03;;;8.87;64.15
79481;BME280;68944;48.262;14.208;2023-04-25T04:40:30;97606.56;;;8.94;64.39
79481;BME280;68944;48.262;14.208;2023-04-25T04:43:20;97612.31;;;9.03;64.69
79481;BME280;68944;48.262;14.208;2023-04-25T04:46:08;97622.09;;;9.15;64.12
79481;BME280;68944;48.262;14.208;2023-04-25T04:48:55;97611.28;;;9.16;64.04
79481;BME280;68944;48.262;14.208;2023-04-25T04:51:40;97614.78;;;9.29;64.66
79481;BME280;68944;48.262;14.208;2023-04-25T04:54:32;97604.06;;;9.24;64.34
79481;BME280;68944;48.262;14.208;2023-04-25T04:57:21;97603.25;;;9.23;64.52
79481;BME280;68944;48.262;14.208;2023-04-25T04:59:57;97616.72;;;9.21;65.14
79481;BME280;68944;48.262;14.208;2023-04-25T05:02:45;97611.78;;;9.13;65.42
79481;BME280;68944;48.262;14.208;2023-04-25T05:05:29;97610.22;;;8.93;65.83
79481;BME280;68944;48.262;14.208;2023-04-25T05:08:10;97620.59;;;8.95;65.46
79481;BME280;68944;48.262;14.208;2023-04-25T05:11:07;97612.09;;;9.05;65.78
79481;BME280;68944;48.262;14.208;2023-04-25T05:13:53;97615.59;;;9.29;65.10
79481;BME280;68944;48.262;14.208;2023-04-25T05:16:54;97620.66;;;9.55;65.04
79481;BME280;68944;48.262;14.208;2023-04-25T05:19:35;97614.91;;;9.34;65.28
79481;BME280;68944;48.262;14.208;2023-04-25T05:22:16;97600.38;;;9.37;65.40
79481;BME280;68944;48.262;14.208;2023-04-25T05:24:54;97612.72;;;9.55;65.71
79481;BME280;68944;48.262;14.208;2023-04-25T05:27:30;97604.63;;;9.74;65.76
79481;BME280;68944;48.262;14.208;2023-04-25T05:30:14;97589.09;;;9.89;64.12
79481;BME280;68944;48.262;14.208;2023-04-25T05:33:18;97580.78;;;9.98;63.66
79481;BME280;68944;48.262;14.208;2023-04-25T05:35:45;97589.97;;;10.07;62.94
79481;BME280;68944;48.262;14.208;2023-04-25T05:38:11;97591.78;;;10.19;62.79
79481;BME280;68944;48.262;14.208;2023-04-25T05:40:55;97581.00;;;10.08;62.66
79481;BME280;68944;48.262;14.208;2023-04-25T05:43:42;97593.75;;;10.11;62.66
79481;BME280;68944;48.262;14.208;2023-04-25T05:46:44;97581.72;;;10.04;63.41
79481;BME280;68944;48.262;14.208;2023-04-25T05:49:41;97592.94;;;10.11;62.91
79481;BME280;68944;48.262;14.208;2023-04-25T05:52:25;97585.78;;;9.82;63.52
79481;BME280;68944;48.262;14.208;2023-04-25T05:55:02;97604.06;;;9.84;64.43
79481;BME280;68944;48.262;14.208;2023-04-25T05:57:29;97609.09;;;9.97;64.44
79481;BME280;68944;48.262;14.208;2023-04-25T05:59:55;97598.88;;;10.01;64.02
79481;BME280;68944;48.262;14.208;2023-04-25T06:02:24;97601.81;;;10.17;63.54
79481;BME280;68944;48.262;14.208;2023-04-25T06:04:50;97602.94;;;10.21;63.63
79481;BME280;68944;48.262;14.208;2023-04-25T06:07:17;97600.41;;;10.26;64.04
79481;BME280;68944;48.262;14.208;2023-04-25T06:09:44;97612.13;;;10.30;63.87
79481;BME280;68944;48.262;14.208;2023-04-25T06:12:10;97592.91;;;10.23;64.61
79481;BME280;68944;48.262;14.208;2023-04-25T06:14:35;97597.50;;;10.28;64.94
79481;BME280;68944;48.262;14.208;2023-04-25T06:17:02;97608.25;;;10.21;64.80
79481;BME280;68944;48.262;14.208;2023-04-25T06:19:35;97599.34;;;10.27;65.09
79481;BME280;68944;48.262;14.208;2023-04-25T06:22:02;97592.47;;;10.55;63.22
79481;BME280;68944;48.262;14.208;2023-04-25T06:24:28;97602.38;;;10.60;61.93
79481;BME280;68944;48.262;14.208;2023-04-25T06:26:54;97596.91;;;10.67;62.54
79481;BME280;68944;48.262;14.208;2023-04-25T06:29:20;97601.28;;;10.73;62.97
79481;BME280;68944;48.262;14.208;2023-04-25T06:31:46;97598.50;;;10.97;62.92
79481;BME280;68944;48.262;14.208;2023-04-25T06:34:11;97594.03;;;11.15;62.87
79481;BME280;68944;48.262;14.208;2023-04-25T06:36:39;97604.03;;;11.30;61.76
79481;BME280;68944;48.262;14.208;2023-04-25T06:39:08;97579.69;;;11.33;60.99
79481;BME280;68944;48.262;14.208;2023-04-25T06:41:34;97593.44;;;11.47;60.94
79481;BME280;68944;48.262;14.208;2023-04-25T06:44:02;97587.06;;;11.48;60.62
79481;BME280;68944;48.262;14.208;2023-04-25T06:46:31;97588.84;;;11.43;60.64
79481;BME280;68944;48.262;14.208;2023-04-25T06:48:58;97578.00;;;11.44;61.14
79481;BME280;68944;48.262;14.208;2023-04-25T06:51:24;97569.56;;;11.47;60.74
79481;BME280;68944;48.262;14.208;2023-04-25T06:53:51;97562.16;;;11.49;60.49
79481;BME280;68944;48.262;14.208;2023-04-25T06:56:25;97572.63;;;11.61;60.78
79481;BME280;68944;48.262;14.208;2023-04-25T06:58:57;97572.72;;;11.67;60.21
79481;BME280;68944;48.262;14.208;2023-04-25T07:01:29;97556.97;;;11.60;59.86
79481;BME280;68944;48.262;14.208;2023-04-25T07:03:58;97572.16;;;11.65;60.57
79481;BME280;68944;48.262;14.208;2023-04-25T07:06:24;97560.63;;;11.54;60.32
79481;BME280;68944;48.262;14.208;2023-04-25T07:08:51;97570.03;;;11.44;60.36
79481;BME280;68944;48.262;14.208;2023-04-25T07:11:17;97560.53;;;11.48;61.46
79481;BME280;68944;48.262;14.208;2023-04-25T07:13:42;97573.97;;;11.59;60.93
79481;BME280;68944;48.262;14.208;2023-04-25T07:16:08;97579.31;;;11.64;61.05
79481;BME280;68944;48.262;14.208;2023-04-25T07:18:34;97574.00;;;11.64;61.30
79481;BME280;68944;48.262;14.208;2023-04-25T07:21:01;97569.25;;;11.66;61.87
79481;BME280;68944;48.262;14.208;2023-04-25T07:23:27;97570.75;;;11.57;60.29
79481;BME280;68944;48.262;14.208;2023-04-25T07:25:53;97581.09;;;11.58;60.59
79481;BME280;68944;48.262;14.208;2023-04-25T07:28:21;97562.78;;;11.57;60.99
79481;BME280;68944;48.262;14.208;2023-04-25T07:30:46;97571.97;;;11.71;60.66
79481;BME280;68944;48.262;14.208;2023-04-25T07:33:12;97569.09;;;11.95;60.56
79481;BME280;68944;48.262;14.208;2023-04-25T07:35:38;97565.66;;;12.17;60.06
79481;BME280;68944;48.262;14.208;2023-04-25T07:38:04;97558.66;;;12.34;60.56
79481;BME280;68944;48.262;14.208;2023-04-25T07:40:31;97560.16;;;12.52;58.69
79481;BME280;68944;48.262;14.208;2023-04-25T07:43:03;97564.06;;;12.44;58.31
79481;BME280;68944;48.262;14.208;2023-04-25T07:45:57;97564.88;;;12.45;57.90
79481;BME280;68944;48.262;14.208;2023-04-25T07:48:25;97553.13;;;12.40;58.09
79481;BME280;68944;48.262;14.208;2023-04-25T07:50:52;97561.81;;;12.31;58.95
79481;BME280;68944;48.262;14.208;2023-04-25T07:53:18;97556.59;;;12.13;58.99
79481;BME280;68944;48.262;14.208;2023-04-25T07:55:50;97562.44;;;12.15;58.64
79481;BME280;68944;48.262;14.208;2023-04-25T07:58:17;97559.28;;;11.96;58.51
79481;BME280;68944;48.262;14.208;2023-04-25T08:00:48;97570.94;;;11.72;58.46
79481;BME280;68944;48.262;14.208;2023-04-25T08:03:37;97552.22;;;11.62;60.09
79481;BME280;68944;48.262;14.208;2023-04-25T08:06:07;97557.06;;;11.65;60.36
79481;BME280;68944;48.262;14.208;2023-04-25T08:08:38;97548.28;;;11.65;59.98
79481;BME280;68944;48.262;14.208;2023-04-25T08:11:04;97557.16;;;11.76;60.17
79481;BME280;68944;48.262;14.208;2023-04-25T08:13:30;97544.53;;;11.60;60.35
79481;BME280;68944;48.262;14.208;2023-04-25T08:15:56;97550.13;;;11.64;59.10
79481;BME280;68944;48.262;14.208;2023-04-25T08:18:21;97553.00;;;11.80;59.38
79481;BME280;68944;48.262;14.208;2023-04-25T08:20:48;97532.16;;;11.94;59.06
79481;BME280;68944;48.262;14.208;2023-04-25T08:23:14;97558.22;;;11.75;57.86
79481;BME280;68944;48.262;14.208;2023-04-25T08:25:51;97538.38;;;11.77;58.38
79481;BME280;68944;48.262;14.208;2023-04-25T08:28:19;97534.41;;;11.80;58.23
79481;BME280;68944;48.262;14.208;2023-04-25T08:30:45;97537.06;;;12.02;58.58
79481;BME280;68944;48.262;14.208;2023-04-25T08:33:13;97528.84;;;12.26;58.71
79481;BME280;68944;48.262;14.208;2023-04-25T08:35:52;97544.22;;;12.52;57.45
79481;BME280;68944;48.262;14.208;2023-04-25T08:38:18;97532.00;;;12.51;57.19
79481;BME280;68944;48.262;14.208;2023-04-25T08:40:49;97537.31;;;12.51;56.17
79481;BME280;68944;48.262;14.208;2023-04-25T08:43:18;97528.91;;;12.65;56.88
79481;BME280;68944;48.262;14.208;2023-04-25T08:45:44;97541.44;;;12.69;56.62
79481;BME280;68944;48.262;14.208;2023-04-25T08:48:21;97546.72;;;12.64;56.24
79481;BME280;68944;48.262;14.208;2023-04-25T08:50:51;97541.72;;;12.68;56.91
79481;BME280;68944;48.262;14.208;2023-04-25T08:53:22;97550.59;;;12.51;56.05
79481;BME280;68944;48.262;14.208;2023-04-25T08:55:51;97539.66;;;12.20;56.76
79481;BME280;68944;48.262;14.208;2023-04-25T08:58:18;97554.25;;;12.17;57.23
79481;BME280;68944;48.262;14.208;2023-04-25T09:00:46;97545.88;;;12.31;57.30
79481;BME280;68944;48.262;14.208;2023-04-25T09:03:12;97551.84;;;12.43;56.63
79481;BME280;68944;48.262;14.208;2023-04-25T09:05:39;97557.81;;;12.56;56.71
79481;BME280;68944;48.262;14.208;2023-04-25T09:08:07;97540.47;;;12.81;56.84
79481;BME280;68944;48.262;14.208;2023-04-25T09:10:33;97540.59;;;12.96;56.10
79481;BME280;68944;48.262;14.208;2023-04-25T09:15:29;97535.84;;;12.66;54.93
79481;BME280;68944;48.262;14.208;2023-04-25T09:18:08;97535.31;;;13.02;56.27
79481;BME280;68944;48.262;14.208;2023-04-25T09:20:43;97540.78;;;13.23;56.54
79481;BME280;68944;48.262;14.208;2023-04-25T09:23:08;97547.03;;;13.44;55.03
79481;BME280;68944;48.262;14.208;2023-04-25T09:25:37;97530.84;;;13.51;55.39
79481;BME280;68944;48.262;14.208;2023-04-25T09:28:06;97522.69;;;13.63;53.44
79481;BME280;68944;48.262;14.208;2023-04-25T09:30:36;97544.88;;;13.90;53.05
79481;BME280;68944;48.262;14.208;2023-04-25T09:33:10;97551.59;;;14.08;53.16
79481;BME280;68944;48.262;14.208;2023-04-25T09:35:42;97545.75;;;14.11;53.19
79481;BME280;68944;48.262;14.208;2023-04-25T09:38:14;97550.25;;;14.10;52.21
79481;BME280;68944;48.262;14.208;2023-04-25T09:40:52;97548.09;;;13.97;52.64
79481;BME280;68944;48.262;14.208;2023-04-25T09:43:49;97550.72;;;13.81;53.30
79481;BME280;68944;48.262;14.208;2023-04-25T09:46:14;97560.56;;;13.86;53.89
79481;BME280;68944;48.262;14.208;2023-04-25T09:48:50;97542.69;;;13.76;52.68
79481;BME280;68944;48.262;14.208;2023-04-25T09:51:25;97556.34;;;13.95;50.38
79481;BME280;68944;48.262;14.208;2023-04-25T09:53:52;97551.44;;;13.71;50.42
79481;BME280;68944;48.262;14.208;2023-04-25T09:56:29;97549.41;;;13.94;51.34
79481;BME280;68944;48.262;14.208;2023-04-25T09:58:59;97548.41;;;14.11;50.28
79481;BME280;68944;48.262;14.208;2023-04-25T10:01:26;97539.91;;;14.25;50.20
79481;BME280;68944;48.262;14.208;2023-04-25T10:04:04;97535.41;;;14.30;50.52
79481;BME280;68944;48.262;14.208;2023-04-25T10:06:41;97545.25;;;14.25;50.14
79481;BME280;68944;48.262;14.208;2023-04-25T10:09:08;97535.16;;;14.42;49.32
79481;BME280;68944;48.262;14.208;2023-04-25T10:11:34;97532.50;;;14.53;50.56
79481;BME280;68944;48.262;14.208;2023-04-25T10:14:00;97537.06;;;14.63;49.46
79481;BME280;68944;48.262;14.208;2023-04-25T10:16:27;97547.44;;;14.59;50.15
79481;BME280;68944;48.262;14.208;2023-04-25T10:18:53;97529.84;;;14.53;50.28
79481;BME280;68944;48.262;14.208;2023-04-25T10:21:20;97547.19;;;14.55;49.44
79481;BME280;68944;48.262;14.208;2023-04-25T10:23:47;97562.06;;;14.51;50.23
79481;BME280;68944;48.262;14.208;2023-04-25T10:26:13;97563.13;;;14.35;50.77
79481;BME280;68944;48.262;14.208;2023-04-25T10:29:09;97568.13;;;14.15;49.79
79481;BME280;68944;48.262;14.208;2023-04-25T10:31:45;97570.34;;;13.75;49.49
79481;BME280;68944;48.262;14.208;2023-04-25T10:34:10;97559.41;;;13.66;51.40
79481;BME280;68944;48.262;14.208;2023-04-25T10:36:36;97566.06;;;13.69;51.97
79481;BME280;68944;48.262;14.208;2023-04-25T10:39:06;97567.69;;;13.70;52.42
79481;BME280;68944;48.262;14.208;2023-04-25T10:41:46;97571.69;;;13.77;52.50
79481;BME280;68944;48.262;14.208;2023-04-25T10:44:13;97563.72;;;13.77;51.98
79481;BME280;68944;48.262;14.208;2023-04-25T10:46:39;97569.34;;;13.86;51.68
79481;BME280;68944;48.262;14.208;2023-04-25T10:49:04;97571.72;;;13.83;51.76
79481;BME280;68944;48.262;14.208;2023-04-25T10:51:34;97582.44;;;13.50;51.46
79481;BME280;68944;48.262;14.208;2023-04-25T10:54:05;97596.63;;;13.23;51.28
79481;BME280;68944;48.262;14.208;2023-04-25T10:56:33;97599.25;;;12.84;52.60
79481;BME280;68944;48.262;14.208;2023-04-25T10:59:11;97626.31;;;12.26;54.23
79481;BME280;68944;48.262;14.208;2023-04-25T11:01:42;97628.53;;;11.94;55.09
79481;BME280;68944;48.262;14.208;2023-04-25T11:04:23;97624.38;;;11.42;56.69
79481;BME280;68944;48.262;14.208;2023-04-25T11:09:23;97631.34;;;10.67;59.01
79481;BME280;68944;48.262;14.208;2023-04-25T11:11:56;97631.66;;;10.83;60.35
79481;BME280;68944;48.262;14.208;2023-04-25T11:14:23;97627.38;;;10.81;60.11
79481;BME280;68944;48.262;14.208;2023-04-25T11:16:56;97628.38;;;11.10;61.29
79481;BME280;68944;48.262;14.208;2023-04-25T11:19:23;97630.31;;;11.32;61.84
79481;BME280;68944;48.262;14.208;2023-04-25T11:21:50;97625.88;;;11.55;61.05
79481;BME280;68944;48.262;14.208;2023-04-25T11:24:16;97616.91;;;11.78;60.00
79481;BME280;68944;48.262;14.208;2023-04-25T11:26:43;97611.66;;;12.01;59.62
79481;BME280;68944;48.262;14.208;2023-04-25T11:29:09;97605.06;;;12.26;58.33
79481;BME280;68944;48.262;14.208;2023-04-25T11:31:34;97597.34;;;12.52;57.81
79481;BME280;68944;48.262;14.208;2023-04-25T11:34:00;97600.75;;;13.03;57.56
79481;BME280;68944;48.262;14.208;2023-04-25T11:36:26;97602.41;;;13.52;57.00
79481;BME280;68944;48.262;14.208;2023-04-25T11:38:53;97594.66;;;13.89;53.27
79481;BME280;68944;48.262;14.208;2023-04-25T11:41:19;97606.41;;;13.98;50.69
79481;BME280;68944;48.262;14.208;2023-04-25T11:43:45;97589.38;;;13.99;51.35
79481;BME280;68944;48.262;14.208;2023-04-25T11:46:11;97603.09;;;14.40;52.04
79481;BME280;68944;48.262;14.208;2023-04-25T11:48:45;97589.00;;;14.50;49.76
79481;BME280;68944;48.262;14.208;2023-04-25T11:51:11;97600.47;;;14.55;48.57
79481;BME280;68944;48.262;14.208;2023-04-25T11:53:41;97594.84;;;14.52;48.84
79481;BME280;68944;48.262;14.208;2023-04-25T11:56:10;97598.09;;;14.64;49.76
79481;BME280;68944;48.262;14.208;2023-04-25T11:58:58;97594.63;;;14.79;50.46
79481;BME280;68944;48.262;14.208;2023-04-25T12:01:33;97597.06;;;14.92;50.21
79481;BME280;68944;48.262;14.208;2023-04-25T12:04:14;97592.25;;;14.83;50.14
79481;BME280;68944;48.262;14.208;2023-04-25T12:06:41;97598.16;;;15.32;50.50
79481;BME280;68944;48.262;14.208;2023-04-25T12:09:11;97593.22;;;15.81;48.61
79481;BME280;68944;48.262;14.208;2023-04-25T12:11:45;97593.78;;;15.78;49.61
79481;BME280;68944;48.262;14.208;2023-04-25T12:14:25;97591.63;;;15.86;49.70
79481;BME280;68944;48.262;14.208;2023-04-25T12:16:54;97585.38;;;16.17;50.22
79481;BME280;68944;48.262;14.208;2023-04-25T12:19:20;97589.16;;;16.05;48.82
79481;BME280;68944;48.262;14.208;2023-04-25T12:21:46;97565.22;;;16.40;50.50
79481;BME280;68944;48.262;14.208;2023-04-25T12:24:17;97568.69;;;16.41;48.02
79481;BME280;68944;48.262;14.208;2023-04-25T12:26:51;97574.34;;;16.34;44.58
79481;BME280;68944;48.262;14.208;2023-04-25T12:29:22;97574.31;;;16.79;46.53
79481;BME280;68944;48.262;14.208;2023-04-25T12:31:50;97562.88;;;17.03;45.04
79481;BME280;68944;48.262;14.208;2023-04-25T12:34:17;97560.03;;;16.94;45.64
79481;BME280;68944;48.262;14.208;2023-04-25T12:36:42;97588.03;;;16.67;45.22
79481;BME280;68944;48.262;14.208;2023-04-25T12:39:08;97594.09;;;15.56;47.75
79481;BME280;68944;48.262;14.208;2023-04-25T12:41:33;97606.16;;;14.90;48.75
79481;BME280;68944;48.262;14.208;2023-04-25T12:43:59;97612.59;;;14.15;51.96
79481;BME280;68944;48.262;14.208;2023-04-25T12:46:24;97617.22;;;13.38;55.33
79481;BME280;68944;48.262;14.208;2023-04-25T12:48:50;97627.94;;;12.82;56.44
79481;BME280;68944;48.262;14.208;2023-04-25T12:51:16;97633.31;;;12.88;57.84
79481;BME280;68944;48.262;14.208;2023-04-25T12:53:41;97623.50;;;13.21;58.62
79481;BME280;68944;48.262;14.208;2023-04-25T12:56:08;97616.44;;;13.81;57.94
79481;BME280;68944;48.262;14.208;2023-04-25T12:58:33;97600.47;;;14.61;58.20
79481;BME280;68944;48.262;14.208;2023-04-25T13:00:59;97602.41;;;14.92;56.47
79481;BME280;68944;48.262;14.208;2023-04-25T13:03:24;97597.38;;;16.24;55.07
79481;BME280;68944;48.262;14.208;2023-04-25T13:05:51;97580.94;;;18.01;53.46
79481;BME280;68944;48.262;14.208;2023-04-25T13:08:20;97582.19;;;19.82;50.82
79481;BME280;68944;48.262;14.208;2023-04-25T13:10:47;97572.22;;;21.40;48.04
79481;BME280;68944;48.262;14.208;2023-04-25T13:13:13;97583.16;;;22.60;43.94